Time;durP1;ratioP1;P1;durP2;ratioP2;P2;SDS_P1;SDS_P2;PMS_P1;PMS_P2;Temp;Humidity;BMP_temperature;BMP_pressure;BME280_temperature;BME280_humidity;BME280_pressure;Samples;Min_cycle;Max_cycle;Signal;HPM_P1;HPM_P2
2023/05/22 00:01:07;;;;;;;5.75;4.40;;;;;;;17.00;95.80;98649.28;4485628;31;20088;-66
2023/05/22 00:03:35;;;;;;;8.05;4.53;;;;;;;16.91;97.25;98658.31;4485589;31;20096;-67
2023/05/22 00:06:05;;;;;;;9.27;4.82;;;;;;;16.90;97.56;98654.84;4485618;31;20097;-66
2023/05/22 00:08:32;;;;;;;8.10;4.87;;;;;;;16.78;98.20;98650.97;4485591;31;20109;-66
2023/05/22 00:10:59;;;;;;;5.68;4.22;;;;;;;16.70;99.67;98651.87;4485615;31;20104;-66
2023/05/22 00:13:26;;;;;;;6.78;4.50;;;;;;;16.68;99.36;98656.50;4496882;31;20884;-66
2023/05/22 00:15:54;;;;;;;8.07;4.32;;;;;;;16.71;99.56;98661.44;4492388;31;20126;-66
2023/05/22 00:18:21;;;;;;;6.15;4.30;;;;;;;16.68;99.77;98657.34;4485523;31;20159;-66
2023/05/22 00:20:49;;;;;;;6.82;4.30;;;;;;;16.59;100.00;98647.81;4485563;32;20153;-66
2023/05/22 00:23:16;;;;;;;6.85;4.55;;;;;;;16.52;100.00;98652.19;4485502;31;20080;-66
2023/05/22 00:25:44;;;;;;;5.60;4.05;;;;;;;16.44;100.00;98645.16;4485483;31;20093;-66
2023/05/22 00:28:12;;;;;;;9.25;4.72;;;;;;;16.44;100.00;98654.91;4485469;32;20084;-66
2023/05/22 00:30:39;;;;;;;7.68;4.53;;;;;;;16.48;100.00;98654.34;4485645;32;20195;-66
2023/05/22 00:33:07;;;;;;;8.85;4.18;;;;;;;16.46;100.00;98650.28;4485646;31;20112;-66
2023/05/22 00:35:34;;;;;;;6.28;3.97;;;;;;;16.44;100.00;98642.50;4485752;31;20095;-66
2023/05/22 00:38:03;;;;;;;7.37;4.68;;;;;;;16.38;100.00;98639.75;4485333;31;20093;-66
2023/05/22 00:40:30;;;;;;;6.18;4.40;;;;;;;16.37;100.00;98643.41;4485348;31;20430;-66
2023/05/22 00:42:58;;;;;;;8.65;4.15;;;;;;;16.35;100.00;98642.75;4485342;31;20092;-66
2023/05/22 00:45:26;;;;;;;5.40;3.60;;;;;;;16.30;100.00;98643.28;4485478;31;20115;-66
2023/05/22 00:47:54;;;;;;;7.03;4.25;;;;;;;16.32;100.00;98642.09;4485466;31;20100;-66
2023/05/22 00:50:21;;;;;;;7.18;4.18;;;;;;;16.24;100.00;98642.16;4485265;31;20144;-66
2023/05/22 00:52:48;;;;;;;6.28;3.72;;;;;;;16.20;99.87;98645.31;4485154;31;20091;-66
2023/05/22 00:55:16;;;;;;;9.15;4.40;;;;;;;16.25;98.69;98645.63;4485213;31;20112;-66
2023/05/22 00:57:44;;;;;;;6.55;4.28;;;;;;;16.22;99.72;98646.00;4485122;32;20491;-66
2023/05/22 01:00:12;;;;;;;6.05;3.90;;;;;;;16.23;98.60;98643.16;4471101;32;20114;-67
2023/05/22 01:02:41;;;;;;;6.53;3.90;;;;;;;16.20;98.85;98640.03;4484220;32;20096;-66
2023/05/22 01:05:11;;;;;;;8.18;3.90;;;;;;;16.09;99.30;98628.06;4485126;31;20089;-66
2023/05/22 01:07:39;;;;;;;11.25;3.83;;;;;;;16.06;99.28;98633.69;4485203;31;20093;-66
2023/05/22 01:10:07;;;;;;;9.77;3.83;;;;;;;16.05;98.95;98630.25;4485286;31;20145;-66
2023/05/22 01:12:41;;;;;;;6.25;3.83;;;;;;;16.05;99.22;98637.34;4490851;31;20096;-66
2023/05/22 01:15:30;;;;;;;5.65;3.67;;;;;;;16.01;98.94;98634.22;4497012;31;20145;-66
2023/05/22 01:18:23;;;;;;;6.75;3.87;;;;;;;16.01;97.85;98634.22;4485303;31;20084;-66
2023/05/22 01:21:20;;;;;;;7.00;4.00;;;;;;;15.96;97.47;98631.31;4483880;32;20084;-66
2023/05/22 01:24:06;;;;;;;4.57;3.20;;;;;;;15.94;97.38;98628.00;4420646;32;20630;-66
2023/05/22 01:26:39;;;;;;;8.35;3.60;;;;;;;16.00;94.89;98629.94;4420794;32;20175;-66
2023/05/22 01:29:21;;;;;;;5.82;3.67;;;;;;;16.01;94.36;98636.87;4420634;32;20247;-66
2023/05/22 01:31:50;;;;;;;4.97;3.33;;;;;;;16.00;93.97;98627.28;4420459;32;20093;-68
2023/05/22 01:34:17;;;;;;;11.43;3.47;;;;;;;16.01;92.12;98628.13;4408110;32;20506;-67
2023/05/22 01:36:45;;;;;;;7.37;3.62;;;;;;;15.99;91.96;98628.31;4420452;32;20106;-66
2023/05/22 01:39:13;;;;;;;8.45;3.85;;;;;;;16.01;91.37;98634.22;4408031;32;20169;-66
2023/05/22 01:41:41;;;;;;;10.05;3.62;;;;;;;15.94;92.99;98628.00;4407785;32;20105;-66
2023/05/22 01:44:09;;;;;;;7.30;3.45;;;;;;;15.93;92.01;98634.28;4420444;32;20375;-66
2023/05/22 01:46:37;;;;;;;5.72;2.83;;;;;;;15.97;91.14;98627.66;4420653;32;20125;-66
2023/05/22 01:49:04;;;;;;;4.28;3.28;;;;;;;15.93;91.45;98629.00;4420308;32;20191;-67
2023/05/22 01:51:37;;;;;;;7.25;3.87;;;;;;;15.95;91.94;98629.66;4420509;32;20093;-67
2023/05/22 01:54:11;;;;;;;4.40;3.22;;;;;;;15.91;92.33;98621.25;4420322;32;20155;-66
2023/05/22 01:56:44;;;;;;;8.27;3.58;;;;;;;15.88;91.32;98618.12;4420256;32;20151;-66
2023/05/22 01:59:11;;;;;;;6.45;3.30;;;;;;;15.92;90.14;98616.78;4407790;32;20161;-66
2023/05/22 02:01:39;;;;;;;4.50;3.08;;;;;;;15.94;89.79;98612.13;4479251;32;20136;-66
2023/05/22 02:04:08;;;;;;;6.32;3.35;;;;;;;15.90;90.12;98616.97;4483467;32;20483;-66
2023/05/22 02:06:36;;;;;;;9.25;3.60;;;;;;;15.91;88.61;98612.50;4483500;32;20092;-66
2023/05/22 02:09:04;;;;;;;8.25;3.35;;;;;;;15.94;88.77;98612.13;4483330;32;20142;-66
2023/05/22 02:11:32;;;;;;;5.37;3.20;;;;;;;15.91;89.37;98612.50;4484577;32;20084;-66
2023/05/22 02:14:00;;;;;;;8.60;3.17;;;;;;;15.80;90.45;98605.81;4482605;31;20085;-66
2023/05/22 02:16:29;;;;;;;8.55;3.42;;;;;;;15.72;90.22;98605.84;4495824;31;20246;-66
2023/05/22 02:19:06;;;;;;;5.28;3.10;;;;;;;15.71;90.04;98607.63;4499515;31;20087;-66
2023/05/22 02:21:34;;;;;;;8.38;3.45;;;;;;;15.75;89.65;98616.03;4500676;31;20433;-66
2023/05/22 02:24:02;;;;;;;7.45;3.83;;;;;;;15.67;89.80;98606.34;4500106;31;20093;-66
2023/05/22 02:26:29;;;;;;;7.47;3.40;;;;;;;15.64;89.20;98611.13;4499274;31;20100;-66
2023/05/22 02:28:57;;;;;;;5.25;3.12;;;;;;;15.64;89.04;98600.56;4500493;31;20168;-66
2023/05/22 02:31:25;;;;;;;6.50;2.92;;;;;;;15.61;88.53;98602.59;4500608;31;20111;-66
2023/05/22 02:33:52;;;;;;;10.60;3.92;;;;;;;15.61;88.92;98604.41;4500071;31;20084;-66
2023/05/22 02:36:19;;;;;;;6.18;3.00;;;;;;;15.58;88.92;98602.12;4500204;31;20149;-66
2023/05/22 02:38:47;;;;;;;5.87;3.17;;;;;;;15.58;88.43;98604.75;4500432;31;20099;-66
2023/05/22 02:41:14;;;;;;;9.52;3.25;;;;;;;15.59;87.90;98594.03;4500127;31;20155;-66
2023/05/22 02:43:41;;;;;;;4.80;3.25;;;;;;;15.55;87.59;98598.00;4500122;31;20092;-66
2023/05/22 02:46:09;;;;;;;6.85;3.10;;;;;;;15.51;87.65;98596.69;4500301;31;20523;-66
2023/05/22 02:48:36;;;;;;;7.20;3.35;;;;;;;15.48;88.16;98601.50;4499884;31;20092;-66
2023/05/22 02:51:03;;;;;;;5.68;3.17;;;;;;;15.42;88.56;98603.00;4500057;31;20597;-66
2023/05/22 02:53:34;;;;;;;4.50;2.83;;;;;;;15.41;88.19;98599.56;4499665;31;20106;-66
2023/05/22 02:56:01;;;;;;;4.25;2.80;;;;;;;15.39;88.04;98600.72;4499733;31;20107;-66
2023/05/22 02:58:29;;;;;;;5.45;2.90;;;;;;;15.40;87.40;98603.19;4499620;31;20471;-66
2023/05/22 03:00:57;;;;;;;3.92;2.95;;;;;;;15.40;86.13;98597.09;4499641;31;20076;-66
2023/05/22 03:03:25;;;;;;;3.97;2.83;;;;;;;15.43;85.52;98604.66;4500054;31;20156;-66
2023/05/22 03:05:57;;;;;;;14.50;3.78;;;;;;;15.43;84.44;98600.19;4499669;31;20172;-66
2023/05/22 03:08:27;;;;;;;10.85;3.50;;;;;;;15.42;85.56;98606.47;4500004;31;20365;-66
2023/05/22 03:10:55;;;;;;;3.95;3.10;;;;;;;15.40;85.34;98603.19;4498327;31;20118;-66
2023/05/22 03:13:23;;;;;;;6.43;2.75;;;;;;;15.35;85.24;98605.53;4488246;31;20084;-67
2023/05/22 03:15:51;;;;;;;10.35;3.55;;;;;;;15.31;86.20;98598.94;4492466;31;20449;-66
2023/05/22 03:18:19;;;;;;;4.60;3.10;;;;;;;15.30;86.74;98599.91;4499788;31;20133;-66
2023/05/22 03:20:46;;;;;;;7.72;3.12;;;;;;;15.29;87.36;98593.03;4499549;31;20167;-66
2023/05/22 03:23:14;;;;;;;6.65;3.05;;;;;;;15.25;88.03;98589.88;4499368;31;20096;-66
2023/05/22 03:25:41;;;;;;;4.43;3.08;;;;;;;15.20;88.44;98594.03;4499116;31;20123;-66
2023/05/22 03:28:08;;;;;;;6.65;3.00;;;;;;;15.21;88.30;98595.66;4499552;31;20095;-66
2023/05/22 03:30:36;;;;;;;7.10;2.90;;;;;;;15.30;87.72;98594.62;4500919;31;20088;-66
2023/05/22 03:33:04;;;;;;;4.85;3.10;;;;;;;15.31;87.66;98593.66;4501818;31;20100;-66
2023/05/22 03:35:31;;;;;;;4.57;2.85;;;;;;;15.31;87.40;98591.03;4501775;31;20104;-66
2023/05/22 03:37:59;;;;;;;4.57;3.60;;;;;;;15.35;86.54;98594.97;4501898;31;20114;-66
2023/05/22 03:40:26;;;;;;;4.12;2.80;;;;;;;15.45;86.26;98594.75;4501544;31;20083;-66
2023/05/22 03:42:53;;;;;;;6.05;2.78;;;;;;;15.55;85.55;98597.19;4501884;31;20136;-66
2023/05/22 03:45:20;;;;;;;5.20;2.53;;;;;;;15.58;85.27;98599.47;4501559;31;20269;-66
2023/05/22 03:47:47;;;;;;;5.22;2.60;;;;;;;15.57;84.93;98595.19;4501751;31;20143;-66
2023/05/22 03:50:15;;;;;;;6.35;3.20;;;;;;;15.63;84.00;98591.03;4501616;31;20100;-66
2023/05/22 03:52:44;;;;;;;5.60;2.55;;;;;;;15.59;84.17;98598.47;4501505;31;20089;-66
2023/05/22 03:55:11;;;;;;;7.75;3.45;;;;;;;15.50;84.78;98592.41;4501427;31;20118;-66
2023/05/22 03:57:38;;;;;;;10.02;2.90;;;;;;;15.48;84.92;98591.75;4501452;31;20155;-66
2023/05/22 04:00:08;;;;;;;4.25;2.42;;;;;;;15.36;85.70;98591.31;4501559;31;20162;-66
2023/05/22 04:02:38;;;;;;;6.47;2.67;;;;;;;15.37;85.31;98594.78;4501458;31;20102;-66
2023/05/22 04:05:07;;;;;;;4.32;2.60;;;;;;;15.36;85.76;98593.94;4501479;31;20151;-66
2023/05/22 04:07:35;;;;;;;11.95;3.40;;;;;;;15.34;86.22;98590.66;4501305;31;20156;-66
2023/05/22 04:10:04;;;;;;;5.47;2.85;;;;;;;15.34;86.29;98598.59;4500952;31;20110;-66
2023/05/22 04:12:31;;;;;;;7.40;2.25;;;;;;;15.39;84.87;98603.34;4494548;31;20176;-66
2023/05/22 04:14:58;;;;;;;7.03;3.10;;;;;;;15.36;84.70;98599.22;4488079;31;20099;-66
2023/05/22 04:17:31;;;;;;;6.07;2.40;;;;;;;15.40;83.79;98600.53;4501501;31;20092;-66
2023/05/22 04:19:59;;;;;;;6.65;2.25;;;;;;;15.39;83.74;98606.81;4501202;31;20114;-67
2023/05/22 04:22:26;;;;;;;5.25;2.50;;;;;;;15.43;84.10;98608.13;4501620;31;20194;-67
2023/05/22 04:24:53;;;;;;;7.30;2.65;;;;;;;15.43;84.25;98618.66;4501307;31;20525;-67
2023/05/22 04:27:25;;;;;;;6.35;2.70;;;;;;;15.43;86.44;98612.59;4501318;31;20167;-67
2023/05/22 04:29:53;;;;;;;4.93;2.42;;;;;;;15.40;90.16;98613.75;4501161;31;20092;-66
2023/05/22 04:32:23;;;;;;;5.82;2.67;;;;;;;15.40;88.62;98615.56;4501289;31;20083;-67
2023/05/22 04:34:51;;;;;;;4.80;3.15;;;;;;;15.51;85.24;98611.72;4501068;31;20157;-66
2023/05/22 04:37:19;;;;;;;4.05;2.55;;;;;;;15.60;82.72;98611.50;4499372;31;20124;-66
2023/05/22 04:39:51;;;;;;;4.70;2.67;;;;;;;15.73;83.26;98618.88;4484072;31;20100;-66
2023/05/22 04:42:19;;;;;;;10.32;3.92;;;;;;;15.97;84.64;98614.44;4485068;31;20131;-67
2023/05/22 04:44:47;;;;;;;7.95;2.92;;;;;;;16.31;85.77;98618.50;4484608;31;20180;-67
2023/05/22 04:47:14;;;;;;;10.50;2.58;;;;;;;16.61;83.35;98613.28;4485437;31;20571;-67
2023/05/22 04:49:42;;;;;;;5.85;2.55;;;;;;;16.84;82.49;98629.09;4483960;32;20537;-67
2023/05/22 04:52:10;;;;;;;25.40;4.10;;;;;;;16.95;81.81;98615.44;4485107;31;20108;-67
2023/05/22 04:54:38;;;;;;;9.68;2.45;;;;;;;16.95;78.92;98623.38;4484868;31;20593;-66
2023/05/22 04:57:05;;;;;;;8.75;2.70;;;;;;;16.90;77.12;98617.00;4484806;32;20577;-67
2023/05/22 04:59:36;;;;;;;14.40;2.58;;;;;;;16.95;77.04;98622.56;4494613;31;20087;-67
2023/05/22 05:02:04;;;;;;;8.85;2.62;;;;;;;17.07;77.56;98622.94;4493432;31;20084;-67
2023/05/22 05:04:32;;;;;;;6.60;2.40;;;;;;;17.10;76.40;98623.38;4498625;31;20164;-67
2023/05/22 05:06:59;;;;;;;11.23;2.75;;;;;;;17.18;78.61;98620.66;4497732;31;20087;-67
2023/05/22 05:09:26;;;;;;;8.65;2.83;;;;;;;17.23;77.99;98621.91;4498272;31;20125;-67
2023/05/22 05:11:54;;;;;;;10.65;3.20;;;;;;;17.28;78.30;98622.19;4491857;31;20114;-67
2023/05/22 05:14:21;;;;;;;16.12;3.22;;;;;;;17.36;79.93;98628.19;4495138;31;20134;-67
2023/05/22 05:16:50;;;;;;;16.98;3.30;;;;;;;17.40;78.05;98627.84;4483332;32;20088;-69
2023/05/22 05:19:20;;;;;;;10.38;3.08;;;;;;;17.45;79.53;98625.47;4488643;31;20071;-68
2023/05/22 05:21:48;;;;;;;7.40;3.15;;;;;;;17.59;84.75;98629.91;4498471;31;20215;-68
2023/05/22 05:24:19;;;;;;;11.32;3.72;;;;;;;17.62;86.78;98629.53;4494836;31;20100;-68
2023/05/22 05:26:46;;;;;;;8.05;3.60;;;;;;;17.61;89.58;98630.56;4495846;31;20847;-68
2023/05/22 05:29:16;;;;;;;15.10;3.50;;;;;;;17.50;90.29;98631.00;4483920;31;20571;-68
2023/05/22 05:31:43;;;;;;;17.00;4.50;;;;;;;17.62;89.10;98634.00;4484513;31;20114;-67
2023/05/22 05:34:12;;;;;;;25.10;3.97;;;;;;;17.98;83.01;98641.16;4486223;31;20104;-67
2023/05/22 05:36:41;;;;;;;9.95;3.10;;;;;;;18.26;75.88;98636.75;4497574;31;20127;-67
2023/05/22 05:39:09;;;;;;;18.35;3.20;;;;;;;18.60;67.82;98629.09;4500044;31;20130;-68
2023/05/22 05:41:36;;;;;;;19.15;3.70;;;;;;;18.79;64.84;98630.25;4494078;31;20160;-68
2023/05/22 05:44:05;;;;;;;12.60;3.03;;;;;;;18.93;64.56;98633.84;4491513;31;20122;-67
2023/05/22 05:46:32;;;;;;;10.07;2.28;;;;;;;19.08;62.88;98644.34;4486056;31;20786;-68
2023/05/22 05:49:08;;;;;;;16.25;4.10;;;;;;;19.22;62.99;98648.72;4499511;31;20099;-68
2023/05/22 05:51:37;;;;;;;21.70;3.83;;;;;;;19.30;61.70;98653.03;4492670;31;20104;-68
2023/05/22 05:54:05;;;;;;;14.40;3.17;;;;;;;19.32;61.29;98654.50;4492062;31;20446;-67
2023/05/22 05:56:33;;;;;;;9.63;2.47;;;;;;;19.45;62.41;98647.59;4487937;31;20165;-68
2023/05/22 05:59:03;;;;;;;10.82;2.60;;;;;;;19.63;59.75;98642.56;4492421;31;20091;-67
2023/05/22 06:01:33;;;;;;;16.00;3.80;;;;;;;19.56;58.90;98646.22;4492951;31;20084;-68
2023/05/22 06:04:02;;;;;;;12.75;2.35;;;;;;;19.67;58.65;98656.28;4493146;31;20088;-64
2023/05/22 06:06:34;;;;;;;19.00;2.55;;;;;;;19.75;58.99;98647.31;4490469;31;20433;-64
2023/05/22 06:09:06;;;;;;;7.28;2.37;;;;;;;19.86;60.07;98652.06;4490935;31;20115;-65
2023/05/22 06:11:35;;;;;;;5.53;1.98;;;;;;;19.88;54.84;98652.72;4491758;31;20792;-67
2023/05/22 06:14:03;;;;;;;9.05;2.25;;;;;;;19.91;53.20;98652.31;4493176;31;20210;-67
2023/05/22 06:16:31;;;;;;;16.23;2.58;;;;;;;19.88;56.27;98650.06;4490819;31;20091;-65
2023/05/22 06:18:58;;;;;;;50.08;4.22;;;;;;;19.82;52.54;98638.38;4494432;31;20100;-68
2023/05/22 06:21:26;;;;;;;10.70;2.33;;;;;;;19.83;54.79;98641.84;4490177;31;20091;-66
2023/05/22 06:23:53;;;;;;;33.40;3.78;;;;;;;19.90;52.21;98642.69;4489681;31;20108;-68
2023/05/22 06:26:22;;;;;;;6.30;2.28;;;;;;;19.76;50.08;98646.31;4493847;31;20092;-68
2023/05/22 06:28:51;;;;;;;10.13;2.83;;;;;;;19.95;53.55;98642.88;4492717;31;20163;-67
2023/05/22 06:31:19;;;;;;;5.03;2.25;;;;;;;19.86;54.22;98644.09;4492360;31;20111;-67
2023/05/22 06:33:46;;;;;;;16.12;3.20;;;;;;;19.98;54.60;98647.00;4496645;31;20092;-67
2023/05/22 06:36:15;;;;;;;11.12;2.15;;;;;;;20.09;52.98;98648.25;4493669;31;20122;-67
2023/05/22 06:38:42;;;;;;;4.78;2.30;;;;;;;20.24;51.17;98646.22;4497530;31;20112;-68
2023/05/22 06:41:12;;;;;;;6.85;2.90;;;;;;;20.21;51.67;98652.78;4486749;31;20100;-66
2023/05/22 06:43:40;;;;;;;19.50;3.00;;;;;;;20.17;51.09;98648.88;4493132;31;20163;-66
2023/05/22 06:46:10;;;;;;;18.40;3.08;;;;;;;20.14;51.83;98646.63;4481445;31;20126;-65
2023/05/22 06:48:39;;;;;;;20.62;3.92;;;;;;;20.42;51.10;98653.59;4488526;31;20532;-67
2023/05/22 06:51:10;;;;;;;6.20;2.78;;;;;;;20.59;51.41;98656.72;4487811;31;20100;-68
2023/05/22 06:53:38;;;;;;;6.18;2.20;;;;;;;20.50;50.75;98660.56;4486881;31;20147;-67
2023/05/22 06:56:07;;;;;;;14.18;3.12;;;;;;;20.60;49.69;98653.00;4482355;31;20491;-67
2023/05/22 06:58:39;;;;;;;12.05;2.45;;;;;;;20.85;51.59;98660.41;4497200;31;20123;-68
2023/05/22 07:01:07;;;;;;;31.48;4.10;;;;;;;20.89;50.04;98661.63;4489290;31;20159;-67
2023/05/22 07:03:35;;;;;;;5.00;2.58;;;;;;;20.82;48.85;98666.16;4493327;31;20093;-68
2023/05/22 07:06:04;;;;;;;4.45;2.53;;;;;;;21.00;50.81;98663.66;4493392;31;20104;-67
2023/05/22 07:08:33;;;;;;;9.05;3.10;;;;;;;21.20;51.98;98649.50;4491346;31;20149;-68
2023/05/22 07:11:00;;;;;;;3.75;2.50;;;;;;;21.37;51.18;98657.84;4492523;31;20182;-67
2023/05/22 07:13:30;;;;;;;13.38;3.35;;;;;;;21.47;52.00;98652.91;4491694;31;20126;-67
2023/05/22 07:15:58;;;;;;;37.65;7.43;;;;;;;21.48;50.24;98657.19;4491013;31;20421;-67
2023/05/22 07:18:26;;;;;;;19.85;4.65;;;;;;;21.93;50.35;98653.72;4488412;31;20179;-68
2023/05/22 07:20:54;;;;;;;31.85;7.97;;;;;;;22.00;48.33;98645.69;4486768;31;20478;-67
2023/05/22 07:23:21;;;;;;;10.07;3.30;;;;;;;22.03;50.96;98651.44;4495996;31;20108;-66
2023/05/22 07:25:51;;;;;;;9.90;2.80;;;;;;;21.92;52.00;98657.44;4488000;31;20112;-67
2023/05/22 07:28:19;;;;;;;4.90;2.80;;;;;;;21.95;50.17;98663.16;4494790;31;20229;-67
2023/05/22 07:30:46;;;;;;;9.82;2.67;;;;;;;21.91;48.64;98674.47;4495006;31;20149;-67
2023/05/22 07:33:14;;;;;;;13.80;2.87;;;;;;;21.73;52.39;98675.97;4490775;31;20161;-68
2023/05/22 07:35:44;;;;;;;10.68;3.30;;;;;;;21.57;49.55;98671.94;4489254;31;20559;-68
2023/05/22 07:38:11;;;;;;;15.82;2.92;;;;;;;21.32;49.34;98662.97;4486583;31;20137;-68
2023/05/22 07:40:41;;;;;;;6.75;2.78;;;;;;;21.06;50.76;98664.66;4487649;31;20143;-67
2023/05/22 07:43:09;;;;;;;8.18;3.10;;;;;;;20.92;51.03;98661.19;4487071;31;20818;-68
2023/05/22 07:45:38;;;;;;;8.52;2.95;;;;;;;20.82;51.61;98658.16;4486793;31;20108;-68
2023/05/22 07:48:07;;;;;;;25.70;3.65;;;;;;;20.84;51.55;98662.25;4484185;31;20116;-67
2023/05/22 07:50:35;;;;;;;14.43;2.80;;;;;;;20.74;51.62;98668.00;4491587;31;20092;-67
2023/05/22 07:53:05;;;;;;;5.62;2.35;;;;;;;20.64;53.74;98666.75;4492068;31;20130;-68
2023/05/22 07:55:33;;;;;;;14.95;2.58;;;;;;;20.68;57.76;98658.16;4491058;31;20088;-66
2023/05/22 07:58:03;;;;;;;5.55;2.90;;;;;;;20.90;57.28;98661.41;4491554;31;20104;-66
2023/05/22 08:00:31;;;;;;;12.10;2.87;;;;;;;20.99;59.61;98661.22;4488202;31;20087;-68
2023/05/22 08:02:59;;;;;;;8.93;2.58;;;;;;;20.89;65.37;98658.94;4494091;31;20141;-66
2023/05/22 08:05:27;;;;;;;6.82;2.70;;;;;;;21.02;57.70;98647.47;4483826;31;20120;-65
2023/05/22 08:07:54;;;;;;;8.98;3.35;;;;;;;21.14;71.64;98647.66;4489067;31;20119;-66
2023/05/22 08:10:22;;;;;;;8.27;2.62;;;;;;;21.01;65.67;98646.63;4495580;31;20126;-66
2023/05/22 08:12:49;;;;;;;8.18;2.70;;;;;;;20.95;66.76;98652.81;4490104;31;20088;-66
2023/05/22 08:15:16;;;;;;;8.90;3.92;;;;;;;20.71;63.82;98644.44;4492367;31;20499;-68
2023/05/22 08:17:44;;;;;;;13.35;2.70;;;;;;;21.23;62.16;98649.06;4486493;31;20196;-67
2023/05/22 08:20:12;;;;;;;4.37;2.50;;;;;;;21.61;56.68;98651.03;4487253;31;20150;-67
2023/05/22 08:22:40;;;;;;;15.45;3.62;;;;;;;21.90;58.33;98654.16;4488352;31;20104;-68
2023/05/22 08:25:08;;;;;;;8.18;3.03;;;;;;;22.03;54.68;98650.59;4487438;31;21078;-67
2023/05/22 08:27:35;;;;;;;42.90;5.60;;;;;;;21.95;56.87;98649.00;4492121;31;20167;-65
2023/05/22 08:30:03;;;;;;;12.52;3.50;;;;;;;21.70;57.88;98652.41;4492096;31;20145;-67
2023/05/22 08:32:31;;;;;;;8.43;3.35;;;;;;;21.65;55.47;98656.72;4491612;31;20139;-67
2023/05/22 08:34:59;;;;;;;11.15;3.12;;;;;;;21.39;56.06;98656.62;4484100;31;20172;-67
2023/05/22 08:37:26;;;;;;;6.25;3.15;;;;;;;21.13;55.69;98648.69;4490278;31;20223;-67
2023/05/22 08:39:54;;;;;;;11.12;3.03;;;;;;;21.17;56.33;98649.91;4486739;31;20114;-68
2023/05/22 08:42:22;;;;;;;12.48;3.60;;;;;;;21.62;58.02;98658.00;4489671;31;20096;-68
2023/05/22 08:44:54;;;;;;;8.40;3.47;;;;;;;22.11;54.89;98656.50;4486126;31;20115;-68
2023/05/22 08:47:24;;;;;;;7.82;3.12;;;;;;;22.26;52.74;98658.06;4488173;31;20130;-68
2023/05/22 08:49:53;;;;;;;8.32;3.37;;;;;;;22.16;53.36;98663.84;4494129;31;20112;-68
2023/05/22 08:52:22;;;;;;;15.63;3.05;;;;;;;22.26;52.71;98663.41;4486800;31;20103;-68
2023/05/22 08:54:53;;;;;;;10.30;3.10;;;;;;;22.41;52.66;98666.59;4490750;31;20875;-67
2023/05/22 08:57:21;;;;;;;5.87;2.92;;;;;;;22.68;50.62;98661.06;4486023;31;20264;-67
2023/05/22 08:59:49;;;;;;;5.47;2.80;;;;;;;22.48;49.90;98663.88;4491773;31;20103;-67
2023/05/22 09:02:16;;;;;;;4.82;3.47;;;;;;;22.74;50.01;98667.37;4485955;31;20104;-67
2023/05/22 09:04:43;;;;;;;6.75;3.05;;;;;;;22.86;48.94;98669.13;4486173;31;20122;-67
2023/05/22 09:07:13;;;;;;;7.40;2.72;;;;;;;23.27;47.35;98664.22;4491647;31;20115;-68
2023/05/22 09:09:41;;;;;;;12.37;3.15;;;;;;;23.55;49.58;98666.34;4487891;31;20080;-67
2023/05/22 09:12:09;;;;;;;11.63;3.20;;;;;;;23.42;49.19;98663.03;4490361;31;20477;-68
2023/05/22 09:14:40;;;;;;;8.05;3.12;;;;;;;23.21;50.96;98655.22;4488654;31;20088;-68
2023/05/22 09:17:10;;;;;;;6.60;2.80;;;;;;;23.34;54.89;98659.59;4488720;31;20718;-68
2023/05/22 09:19:45;;;;;;;5.65;2.92;;;;;;;23.63;50.66;98661.75;4485217;31;20163;-68
2023/05/22 09:22:12;;;;;;;5.12;2.90;;;;;;;23.26;52.27;98656.44;4489145;31;20092;-68
2023/05/22 09:24:42;;;;;;;10.07;3.30;;;;;;;23.56;54.79;98657.31;4492487;31;20640;-66
2023/05/22 09:27:10;;;;;;;7.25;3.00;;;;;;;23.54;54.86;98663.91;4487736;31;20088;-67
2023/05/22 09:29:48;;;;;;;6.22;3.00;;;;;;;23.51;49.20;98664.34;4488928;31;20104;-67
2023/05/22 09:32:16;;;;;;;12.07;3.47;;;;;;;23.31;47.24;98661.91;4489090;31;20271;-68
2023/05/22 09:34:45;;;;;;;9.65;3.05;;;;;;;22.96;48.02;98657.09;4487034;31;20566;-67
2023/05/22 09:37:13;;;;;;;13.75;3.55;;;;;;;23.21;51.18;98665.91;4489890;31;20108;-68
2023/05/22 09:39:45;;;;;;;6.97;2.80;;;;;;;23.47;49.65;98661.31;4489251;31;20088;-66
2023/05/22 09:42:16;;;;;;;15.88;3.45;;;;;;;23.32;54.40;98658.22;4490558;31;20115;-67
2023/05/22 09:44:47;;;;;;;4.65;2.90;;;;;;;23.22;49.35;98650.69;4492813;31;20472;-68
2023/05/22 09:47:15;;;;;;;9.07;3.20;;;;;;;23.00;48.30;98656.44;4497534;31;20147;-69
2023/05/22 09:49:43;;;;;;;145.32;13.98;;;;;;;23.13;52.60;98655.50;4490299;31;20100;-68
2023/05/22 09:52:11;;;;;;;6.82;2.72;;;;;;;22.81;47.17;98658.25;4493702;31;20146;-68
2023/05/22 09:55:01;;;;;;;5.30;2.60;;;;;;;23.10;49.01;98655.16;4492396;31;20441;-68
2023/05/22 09:57:32;;;;;;;5.78;2.50;;;;;;;23.37;46.93;98651.13;4491199;31;20941;-69
2023/05/22 10:00:04;;;;;;;8.70;4.20;;;;;;;23.75;44.20;98654.59;4492748;31;20159;-68
2023/05/22 10:02:41;;;;;;;6.03;3.03;;;;;;;23.89;45.59;98645.41;4495584;31;20099;-68
2023/05/22 10:05:09;;;;;;;8.52;2.65;;;;;;;24.38;45.50;98653.31;4491980;31;20084;-68
2023/05/22 10:07:48;;;;;;;4.72;3.00;;;;;;;24.36;42.82;98655.44;4483044;31;20115;-67
2023/05/22 10:10:17;;;;;;;7.20;3.17;;;;;;;24.39;40.24;98656.81;4490160;31;20105;-68
2023/05/22 10:12:56;;;;;;;7.12;3.08;;;;;;;24.54;41.83;98651.84;4484286;31;20421;-68
2023/05/22 10:15:24;;;;;;;3.37;2.50;;;;;;;24.70;42.08;98642.34;4491233;31;20461;-68
2023/05/22 10:17:51;;;;;;;4.28;2.50;;;;;;;23.96;43.65;98639.13;4484028;31;20092;-68
2023/05/22 10:20:19;;;;;;;4.20;2.50;;;;;;;24.25;47.04;98635.63;4490685;31;20092;-68
2023/05/22 10:22:47;;;;;;;5.82;2.58;;;;;;;24.17;47.26;98630.56;4489144;31;20122;-68
2023/05/22 10:25:17;;;;;;;10.32;3.00;;;;;;;24.31;44.95;98635.72;4490672;31;20096;-68
2023/05/22 10:27:45;;;;;;;6.32;2.75;;;;;;;24.38;43.60;98636.44;4491713;31;20138;-67
2023/05/22 10:30:35;;;;;;;19.67;3.00;;;;;;;24.84;44.85;98629.50;4483552;31;20152;-68
2023/05/22 10:33:18;;;;;;;5.40;2.60;;;;;;;24.76;41.67;98624.53;4481668;31;20213;-68
2023/05/22 10:36:03;;;;;;;14.30;3.12;;;;;;;24.78;42.26;98615.22;4486724;31;20141;-67
2023/05/22 10:38:48;;;;;;;6.25;3.03;;;;;;;24.82;41.11;98615.53;4489965;31;20084;-67
2023/05/22 10:41:16;;;;;;;13.70;3.55;;;;;;;24.83;43.74;98613.66;4491875;31;20438;-67
2023/05/22 10:43:47;;;;;;;4.80;2.60;;;;;;;24.77;41.32;98612.75;4494228;31;20152;-66
2023/05/22 10:46:16;;;;;;;8.10;2.87;;;;;;;24.74;45.02;98611.34;4483676;31;20139;-67
2023/05/22 10:48:45;;;;;;;12.32;3.40;;;;;;;25.24;49.32;98604.66;4495674;31;20803;-67
2023/05/22 10:51:13;;;;;;;11.15;3.10;;;;;;;24.89;49.37;98610.06;4494384;31;20096;-67
2023/05/22 10:53:44;;;;;;;7.85;3.25;;;;;;;24.80;45.60;98612.28;4490475;31;20104;-67
2023/05/22 10:56:13;;;;;;;10.85;3.65;;;;;;;24.84;44.63;98601.91;4493966;31;20112;-66
2023/05/22 10:58:44;;;;;;;5.87;3.40;;;;;;;24.97;45.12;98599.78;4486715;31;20096;-67
2023/05/22 11:01:18;;;;;;;10.50;2.95;;;;;;;25.10;46.33;98600.59;4492250;31;20096;-68
2023/05/22 11:04:14;;;;;;;7.75;2.92;;;;;;;24.97;51.84;98591.75;4488734;31;20130;-66
2023/05/22 11:06:45;;;;;;;7.87;2.72;;;;;;;25.49;47.58;98593.63;4490300;31;20146;-67
2023/05/22 11:09:19;;;;;;;4.78;2.97;;;;;;;25.35;45.90;98594.16;4496568;31;20119;-67
2023/05/22 11:11:47;;;;;;;4.72;2.87;;;;;;;25.24;41.68;98585.88;4491170;31;20108;-67
2023/05/22 11:14:20;;;;;;;4.85;2.90;;;;;;;25.23;45.93;98589.59;4491802;31;20096;-68
2023/05/22 11:16:47;;;;;;;;;;;;;;;25.07;48.08;98580.44;4491221;31;20115;-67
2023/05/22 11:19:14;;;;;;;6.40;3.00;;;;;;;25.54;47.01;98578.69;4487678;31;20024;-67
2023/05/22 11:21:49;;;;;;;8.48;3.00;;;;;;;25.65;41.29;98581.34;4495438;31;20129;-68
2023/05/22 11:24:17;;;;;;;5.40;3.22;;;;;;;25.68;43.84;98580.06;4489307;31;20153;-66
2023/05/22 11:27:00;;;;;;;6.30;2.87;;;;;;;25.70;42.70;98582.50;4481443;31;20162;-67
2023/05/22 11:29:28;;;;;;;6.20;3.85;;;;;;;26.09;45.30;98574.63;4486595;31;20104;-67
2023/05/22 11:31:56;;;;;;;5.93;3.03;;;;;;;26.40;51.24;98575.91;4485834;31;20088;-67
2023/05/22 11:34:25;;;;;;;8.02;3.75;;;;;;;26.10;47.01;98570.84;4483909;31;20104;-67
2023/05/22 11:36:59;;;;;;;5.93;3.03;;;;;;;26.29;50.84;98569.56;4488974;31;20172;-68
2023/05/22 11:39:26;;;;;;;9.65;3.45;;;;;;;26.20;43.75;98574.50;4482773;31;20122;-67
2023/05/22 11:41:54;;;;;;;13.27;6.10;;;;;;;26.03;46.98;98571.03;4494113;31;20140;-67